Time;durP1;ratioP1;P1;durP2;ratioP2;P2;SDS_P1;SDS_P2;PMS_P1;PMS_P2;Temp;Humidity;BMP_temperature;BMP_pressure;BME280_temperature;BME280_humidity;BME280_pressure;Samples;Min_cycle;Max_cycle;Signal;HPM_P1;HPM_P2
2021/12/01 00:01:31;;;;;;;0.10;0.10;;;5.30;99.90;;;5.21;100.00;99864.44;5036143;28;20234;-81
2021/12/01 00:03:59;;;;;;;0.10;0.10;;;5.40;99.90;;;5.21;100.00;99861.81;5032157;28;20739;-81
2021/12/01 00:06:28;;;;;;;0.10;0.10;;;5.40;99.90;;;5.21;100.00;99853.06;5023685;28;20200;-81
2021/12/01 00:09:02;;;;;;;0.10;0.10;;;5.40;99.90;;;5.24;100.00;99847.88;5046463;28;20207;-81
2021/12/01 00:11:30;;;;;;;0.00;0.00;;;5.40;99.90;;;5.23;100.00;99846.09;5030686;28;21720;-81
2021/12/01 00:13:58;;;;;;;0.00;0.00;;;5.40;99.90;;;5.21;100.00;99848.69;5037273;28;20223;-81
2021/12/01 00:16:26;;;;;;;0.10;0.10;;;5.40;99.90;;;5.18;100.00;99845.09;5039626;28;20208;-81
2021/12/01 00:18:54;;;;;;;0.10;0.10;;;5.40;99.90;;;5.15;100.00;99838.06;5044386;28;20221;-81
2021/12/01 00:21:22;;;;;;;0.00;0.00;;;5.30;99.90;;;5.11;100.00;99826.63;5047169;28;20712;-81
2021/12/01 00:23:52;;;;;;;0.10;0.10;;;5.30;99.90;;;5.08;100.00;99818.69;5033936;28;20226;-81
2021/12/01 00:26:21;;;;;;;0.10;0.10;;;5.30;99.90;;;5.11;100.00;99817.88;5040628;28;20214;-81
2021/12/01 00:28:49;;;;;;;0.10;0.10;;;5.30;99.90;;;5.13;100.00;99797.81;5052110;28;20198;-81
2021/12/01 00:31:17;;;;;;;0.10;0.10;;;5.30;99.90;;;5.14;100.00;99794.34;5027931;28;20228;-81
2021/12/01 00:33:45;;;;;;;0.10;0.10;;;5.30;99.90;;;5.12;100.00;99799.56;5021638;28;20216;-81
2021/12/01 00:36:14;;;;;;;0.10;0.10;;;5.30;99.90;;;5.13;100.00;99782.09;5025886;28;20215;-81
2021/12/01 00:38:43;;;;;;;0.10;0.10;;;5.30;99.90;;;5.12;100.00;99786.44;5016184;28;20214;-81
2021/12/01 00:41:12;;;;;;;0.10;0.10;;;5.30;99.90;;;5.13;100.00;99779.47;5033497;28;20701;-81
2021/12/01 00:43:41;;;;;;;0.00;0.00;;;5.30;99.90;;;5.13;100.00;99782.09;5049253;28;20239;-81
2021/12/01 00:46:35;;;;;;;0.00;0.00;;;5.50;99.90;;;5.15;100.00;99780.38;5031845;28;20207;-81
2021/12/01 00:49:03;;;;;;;0.10;0.10;;;5.30;99.90;;;5.17;100.00;99785.66;5049102;28;20200;-81
2021/12/01 00:51:31;;;;;;;0.10;0.10;;;5.30;99.90;;;5.17;100.00;99776.06;5024862;28;20228;-80
2021/12/01 00:53:59;;;;;;;0.10;0.10;;;5.30;99.90;;;5.22;100.00;99778.81;5013708;28;20207;-80
2021/12/01 00:56:27;;;;;;;0.10;0.10;;;5.40;99.90;;;5.22;100.00;99771.81;5009163;28;20204;-81
2021/12/01 00:58:55;;;;;;;0.00;0.00;;;5.40;99.90;;;5.21;100.00;99767.44;5044964;28;20239;-80
2021/12/01 01:01:23;;;;;;;0.10;0.10;;;5.40;99.90;;;5.22;100.00;99761.34;5008263;28;20227;-80
2021/12/01 01:03:52;;;;;;;0.00;0.00;;;5.40;99.90;;;5.20;100.00;99757.81;5047902;28;20224;-80
2021/12/01 01:06:20;;;;;;;0.10;0.10;;;5.30;99.90;;;5.22;100.00;99752.59;5014736;28;20491;-80
2021/12/01 01:08:48;;;;;;;0.00;0.00;;;5.40;99.90;;;5.21;100.00;99763.94;5023204;28;20207;-80
2021/12/01 01:16:50;;;;;;;0.10;0.10;;;5.40;99.90;;;5.21;100.00;99753.44;5061976;28;20215;-80
2021/12/01 01:19:20;;;;;;;0.00;0.00;;;5.40;99.90;;;5.21;100.00;99754.34;5002805;28;20207;-80
2021/12/01 01:21:51;;;;;;;0.10;0.10;;;5.40;99.90;;;5.18;100.00;99750.75;5026532;28;20228;-80
2021/12/01 01:24:38;;;;;;;0.10;0.10;;;5.40;99.90;;;5.20;100.00;99751.66;5026326;28;20227;-80
2021/12/01 01:27:06;;;;;;;0.08;0.08;;;5.30;99.90;;;5.19;100.00;99739.41;5007688;28;20196;-80
2021/12/01 01:29:36;;;;;;;0.10;0.10;;;5.30;99.90;;;5.20;100.00;99744.69;5023097;28;20204;-80
2021/12/01 01:32:05;;;;;;;0.10;0.10;;;5.30;99.90;;;5.19;100.00;99731.53;5015709;28;20212;-81
2021/12/01 01:34:34;;;;;;;0.10;0.10;;;5.40;99.90;;;5.17;100.00;99741.09;5013636;28;20220;-80
2021/12/01 01:37:02;;;;;;;0.10;0.10;;;5.30;99.90;;;5.14;100.00;99739.31;5002726;28;20207;-80
2021/12/01 01:39:31;;;;;;;0.10;0.10;;;5.30;99.90;;;5.14;100.00;99731.44;5012715;28;20218;-80
2021/12/01 01:41:59;;;;;;;0.00;0.00;;;5.30;99.90;;;5.13;100.00;99734.91;5033901;28;20212;-80
2021/12/01 01:44:31;;;;;;;0.10;0.10;;;5.30;99.90;;;5.18;100.00;99725.41;5044545;28;20231;-80
2021/12/01 01:46:59;;;;;;;0.10;0.10;;;5.30;99.90;;;5.17;100.00;99736.75;5046557;28;20213;-80
2021/12/01 01:52:07;;;;;;;0.03;0.03;;;5.30;99.90;;;5.16;100.00;99724.50;5045244;28;20199;-80
2021/12/01 01:54:37;;;;;;;0.10;0.10;;;5.30;99.90;;;5.15;100.00;99725.34;5027343;28;20216;-80
2021/12/01 01:57:05;;;;;;;0.10;0.10;;;5.30;99.90;;;5.14;100.00;99716.59;5030160;28;20246;-80
2021/12/01 01:59:33;;;;;;;0.05;0.05;;;5.30;99.90;;;5.14;100.00;99729.72;5004385;28;21294;-80
2021/12/01 02:02:03;;;;;;;0.10;0.10;;;5.30;99.90;;;5.17;100.00;99720.13;5016942;28;20234;-80
2021/12/01 02:04:35;;;;;;;0.10;0.10;;;5.30;99.90;;;5.17;100.00;99722.75;5026966;28;20226;-80
2021/12/01 02:07:04;;;;;;;0.08;0.08;;;5.30;99.90;;;5.15;100.00;99702.66;5003858;28;20207;-80
2021/12/01 02:09:33;;;;;;;0.10;0.10;;;5.30;99.90;;;5.18;100.00;99708.81;5058786;28;20218;-80
2021/12/01 02:12:03;;;;;;;0.10;0.10;;;5.40;99.90;;;5.20;100.00;99704.47;5035582;28;20211;-80
2021/12/01 02:14:31;;;;;;;0.00;0.00;;;5.30;99.90;;;5.22;100.00;99706.28;5012959;28;20214;-80
2021/12/01 02:17:00;;;;;;;0.10;0.10;;;5.40;99.90;;;5.23;100.00;99694.97;5050064;28;20227;-80
2021/12/01 02:19:28;;;;;;;0.10;0.10;;;5.40;99.90;;;5.28;100.00;99692.41;5029444;28;20223;-80
2021/12/01 02:21:56;;;;;;;0.10;0.10;;;5.40;99.90;;;5.33;100.00;99685.53;5045920;28;20299;-80
2021/12/01 02:24:26;;;;;;;0.00;0.00;;;5.50;99.90;;;5.32;100.00;99683.75;5027040;28;20243;-80
2021/12/01 02:27:14;;;;;;;0.10;0.10;;;5.50;99.90;;;5.37;100.00;99682.09;5038188;28;20221;-80
2021/12/01 02:30:01;;;;;;;0.10;0.10;;;5.50;99.90;;;5.35;100.00;99671.59;5050444;28;20234;-80
2021/12/01 02:32:47;;;;;;;0.00;0.00;;;5.50;99.90;;;5.31;100.00;99663.63;5041131;28;20222;-80
2021/12/01 02:35:35;;;;;;;0.10;0.10;;;5.50;99.90;;;5.31;100.00;99679.38;5048142;28;20219;-80
2021/12/01 02:38:22;;;;;;;0.00;0.00;;;5.50;99.90;;;5.30;100.00;99664.50;5046673;28;20210;-80
2021/12/01 02:40:51;;;;;;;0.00;0.00;;;5.50;99.90;;;5.36;100.00;99657.63;5025897;28;20227;-80
2021/12/01 02:43:23;;;;;;;0.10;0.10;;;5.50;99.90;;;5.43;100.00;99664.75;5028932;28;20207;-80
2021/12/01 02:46:00;;;;;;;0.10;0.10;;;5.50;99.90;;;5.39;100.00;99647.19;5034364;28;20213;-80
2021/12/01 02:48:29;;;;;;;0.08;0.08;;;5.60;99.90;;;5.40;100.00;99648.94;5027826;28;20210;-80
2021/12/01 02:50:58;;;;;;;0.10;0.10;;;5.60;99.90;;;5.40;100.00;99641.09;5030063;28;20263;-80
2021/12/01 02:53:31;;;;;;;0.10;0.10;;;5.60;99.90;;;5.50;100.00;99638.63;4987641;28;20208;-80
2021/12/01 02:56:22;;;;;;;0.00;0.00;;;5.60;99.90;;;5.64;100.00;99643.22;5051050;28;20207;-80
2021/12/01 02:59:08;;;;;;;0.10;0.10;;;5.70;99.90;;;5.60;100.00;99624.78;5033225;28;20212;-80
2021/12/01 03:02:09;;;;;;;0.10;0.10;;;5.70;99.90;;;5.56;100.00;99617.75;4972075;28;20206;-80
2021/12/01 03:04:56;;;;;;;0.10;0.10;;;5.70;99.90;;;5.59;100.00;99618.66;4950480;29;20237;-80
2021/12/01 03:07:45;;;;;;;0.10;0.10;;;5.80;99.90;;;5.57;100.00;99609.91;4952665;28;20211;-80
2021/12/01 03:10:32;;;;;;;0.10;0.10;;;5.80;99.90;;;5.59;100.00;99597.69;4946019;28;20229;-80
2021/12/01 03:13:20;;;;;;;0.10;0.10;;;5.70;99.90;;;5.61;100.00;99597.72;4963451;28;20287;-80
2021/12/01 03:16:07;;;;;;;0.00;0.00;;;5.80;99.90;;;5.60;100.00;99591.59;4941578;28;20229;-80
2021/12/01 03:18:54;;;;;;;0.10;0.10;;;5.70;99.90;;;5.59;100.00;99595.06;4936973;29;20225;-80
2021/12/01 03:21:43;;;;;;;0.08;0.08;;;5.80;99.90;;;5.59;100.00;99579.31;4921109;29;20237;-80
2021/12/01 03:24:33;;;;;;;0.10;0.10;;;5.80;99.90;;;5.65;100.00;99575.91;4953558;28;20261;-80
2021/12/01 03:27:20;;;;;;;0.00;0.00;;;5.80;99.90;;;5.60;100.00;99565.34;4938402;29;20217;-80
2021/12/01 03:30:10;;;;;;;0.10;0.10;;;5.80;99.90;;;5.57;100.00;99548.69;4956474;28;21455;-81
2021/12/01 03:32:56;;;;;;;0.10;0.10;;;5.80;99.90;;;5.63;100.00;99536.56;4930468;29;20225;-80
2021/12/01 03:35:47;;;;;;;0.00;0.00;;;5.70;99.90;;;5.61;100.00;99535.66;4932018;29;20234;-80
2021/12/01 03:38:34;;;;;;;0.10;0.10;;;5.80;99.90;;;5.63;100.00;99543.53;4978095;28;20218;-80
2021/12/01 03:41:21;;;;;;;0.10;0.10;;;5.80;99.90;;;5.65;100.00;99536.56;5025755;28;20242;-81
2021/12/01 03:44:08;;;;;;;0.50;0.50;;;5.80;99.90;;;5.68;100.00;99531.38;5042591;28;20231;-80
2021/12/01 03:46:55;;;;;;;0.00;0.00;;;5.80;99.90;;;5.69;100.00;99536.63;5036648;28;20218;-80
2021/12/01 03:49:41;;;;;;;0.03;0.03;;;5.80;99.90;;;5.65;100.00;99529.59;5032542;28;20227;-80
2021/12/01 03:52:28;;;;;;;0.00;0.00;;;5.80;99.90;;;5.70;100.00;99530.53;5021922;28;20220;-80
2021/12/01 03:55:15;;;;;;;0.00;0.00;;;5.80;99.90;;;5.81;100.00;99517.56;5032731;28;20210;-81
2021/12/01 03:58:04;;;;;;;0.10;0.10;;;5.90;99.90;;;5.79;100.00;99509.66;5009245;28;20201;-80
2021/12/01 04:00:50;;;;;;;0.10;0.10;;;5.90;99.90;;;5.81;100.00;99498.31;5010553;28;20231;-80
2021/12/01 04:03:37;;;;;;;0.00;0.00;;;5.90;99.90;;;5.82;100.00;99487.84;5012904;28;20212;-80
2021/12/01 04:06:26;;;;;;;0.10;0.10;;;6.00;99.90;;;5.86;100.00;99475.63;5035064;28;20568;-80
2021/12/01 04:08:56;;;;;;;0.00;0.00;;;6.00;99.90;;;5.85;100.00;99473.88;5020073;28;20227;-80
2021/12/01 04:11:25;;;;;;;0.10;0.10;;;6.00;99.90;;;5.81;100.00;99454.59;5033646;28;20239;-80
2021/12/01 04:13:56;;;;;;;0.10;0.10;;;6.00;99.90;;;5.82;100.00;99444.97;5021387;28;20200;-80
2021/12/01 04:16:25;;;;;;;0.10;0.10;;;5.90;99.90;;;5.85;100.00;99461.66;5006160;28;20195;-80
2021/12/01 04:19:12;;;;;;;0.00;0.00;;;6.00;99.90;;;5.89;100.00;99449.44;5046427;28;20206;-80
2021/12/01 04:21:58;;;;;;;0.00;0.00;;;6.00;99.90;;;5.86;100.00;99442.41;5040354;28;20219;-80
2021/12/01 04:24:27;;;;;;;0.10;0.10;;;6.00;99.90;;;5.86;100.00;99437.16;5041038;28;20224;-80
2021/12/01 04:27:00;;;;;;;0.10;0.10;;;6.00;99.90;;;5.80;100.00;99426.59;5024239;28;20210;-80
2021/12/01 04:29:29;;;;;;;0.10;0.10;;;6.00;99.90;;;5.77;100.00;99414.31;5017673;28;20671;-79
2021/12/01 04:31:57;;;;;;;0.10;0.10;;;5.90;99.90;;;5.75;100.00;99418.69;4991789;28;20220;-79
2021/12/01 04:34:28;;;;;;;0.10;0.10;;;5.90;99.90;;;5.67;100.00;99398.47;5016020;28;20212;-79
2021/12/01 04:36:56;;;;;;;0.10;0.10;;;5.80;99.90;;;5.62;100.00;99400.16;5019634;28;20201;-79
2021/12/01 04:39:24;;;;;;;0.10;0.10;;;5.80;99.90;;;5.60;100.00;99400.13;5001153;28;20200;-79
2021/12/01 04:41:58;;;;;;;0.10;0.10;;;5.70;99.90;;;5.55;100.00;99391.31;4991687;28;20240;-79
2021/12/01 04:44:26;;;;;;;0.08;0.08;;;5.70;99.90;;;5.58;100.00;99387.84;5029614;28;20255;-79
2021/12/01 04:47:14;;;;;;;0.10;0.10;;;5.70;99.90;;;5.55;100.00;99365.09;5015895;28;20760;-79
2021/12/01 04:49:42;;;;;;;0.30;0.30;;;5.70;99.90;;;5.53;100.00;99355.47;5020518;28;20571;-79
2021/12/01 04:52:12;;;;;;;0.10;0.10;;;5.70;99.90;;;5.64;100.00;99349.47;5004155;28;20204;-80
2021/12/01 04:54:40;;;;;;;0.10;0.10;;;5.70;99.90;;;5.81;100.00;99360.16;5017250;28;20226;-79
2021/12/01 04:57:08;;;;;;;0.10;0.10;;;5.90;99.90;;;5.92;100.00;99348.06;5018104;28;20200;-79
2021/12/01 04:59:37;;;;;;;0.10;0.10;;;6.00;99.90;;;5.93;100.00;99326.19;5052346;28;20211;-79
2021/12/01 05:02:05;;;;;;;0.10;0.10;;;6.00;99.90;;;5.96;100.00;99320.97;5024290;28;20212;-79
2021/12/01 05:04:34;;;;;;;0.10;0.10;;;6.10;99.90;;;6.04;100.00;99311.44;5031294;28;20211;-80
2021/12/01 05:07:04;;;;;;;0.10;0.10;;;6.10;99.90;;;6.06;100.00;99309.72;5025141;28;20207;-79
2021/12/01 05:09:50;;;;;;;0.10;0.10;;;6.20;99.90;;;6.15;100.00;99308.03;5050719;28;20226;-80
2021/12/01 05:12:38;;;;;;;0.10;0.10;;;6.20;99.90;;;6.14;100.00;99278.28;5036893;28;20686;-80
2021/12/01 05:15:25;;;;;;;0.03;0.03;;;6.30;99.90;;;6.11;100.00;99273.00;5050242;28;20219;-80
2021/12/01 05:18:11;;;;;;;0.00;0.00;;;6.30;99.90;;;6.21;100.00;99294.97;5034008;28;20218;-79
2021/12/01 05:20:39;;;;;;;0.00;0.00;;;6.30;99.90;;;6.22;100.00;99281.84;5004462;28;20706;-79
2021/12/01 05:23:07;;;;;;;0.00;0.00;;;6.30;99.90;;;6.21;100.00;99287.09;5029745;28;20208;-82
2021/12/01 05:25:54;;;;;;;0.10;0.10;;;6.40;99.90;;;6.14;100.00;99280.03;5027057;28;20246;-83
2021/12/01 05:28:23;;;;;;;0.10;0.10;;;6.30;99.90;;;6.05;100.00;99271.22;5016788;28;20208;-83
2021/12/01 05:30:51;;;;;;;0.00;0.00;;;6.30;99.90;;;5.93;100.00;99265.84;5025004;28;20212;-83
2021/12/01 05:33:19;;;;;;;0.00;0.00;;;6.20;99.90;;;5.89;100.00;99281.53;4993980;28;20210;-83
2021/12/01 05:35:48;;;;;;;0.00;0.00;;;6.10;99.90;;;5.86;100.00;99271.00;5029962;28;20204;-84
2021/12/01 05:38:17;;;;;;;0.10;0.10;;;6.00;99.90;;;5.83;100.00;99261.34;5011948;28;20631;-83
2021/12/01 05:40:50;;;;;;;0.10;0.10;;;6.00;99.90;;;5.85;100.00;99254.38;5007594;28;20228;-83
2021/12/01 05:43:19;;;;;;;0.00;0.00;;;6.00;99.90;;;5.76;100.00;99256.91;5012301;28;20199;-83
2021/12/01 05:45:48;;;;;;;0.10;0.10;;;6.00;99.90;;;5.75;100.00;99268.28;5029624;28;20220;-84
2021/12/01 05:48:16;;;;;;;0.10;0.10;;;5.90;99.90;;;5.79;100.00;99264.81;5012568;28;20204;-83
2021/12/01 05:50:44;;;;;;;0.10;0.10;;;5.90;99.90;;;5.76;100.00;99252.56;5021905;28;20219;-83
2021/12/01 05:53:13;;;;;;;0.10;0.10;;;5.90;99.90;;;5.74;100.00;99267.41;5025730;28;20207;-83
2021/12/01 05:55:42;;;;;;;0.00;0.00;;;5.90;99.90;;;5.75;100.00;99257.78;5038357;28;20606;-84
2021/12/01 05:58:10;;;;;;;0.00;0.00;;;5.90;99.90;;;5.73;100.00;99263.00;5021677;28;20239;-84
2021/12/01 06:00:39;;;;;;;0.08;0.08;;;5.90;99.90;;;5.74;100.00;99262.16;5012010;28;20234;-83
2021/12/01 06:03:07;;;;;;;0.00;0.00;;;5.90;99.90;;;5.76;100.00;99267.41;5010812;28;20212;-83
2021/12/01 06:05:36;;;;;;;0.00;0.00;;;5.90;99.90;;;5.77;100.00;99262.19;5009503;28;20212;-83
2021/12/01 06:08:05;;;;;;;0.10;0.10;;;5.90;99.90;;;5.75;100.00;99260.41;5027910;28;20207;-84
2021/12/01 06:10:35;;;;;;;0.10;0.10;;;5.90;99.90;;;5.71;100.00;99259.50;5006247;28;20226;-83
2021/12/01 06:13:03;;;;;;;0.00;0.00;;;5.90;99.90;;;5.71;100.00;99263.88;5015548;28;20192;-82
2021/12/01 06:15:31;;;;;;;0.05;0.05;;;5.90;99.90;;;5.64;100.00;99255.06;5012304;28;20208;-83
2021/12/01 06:17:59;;;;;;;0.10;0.10;;;5.80;99.90;;;5.61;100.00;99259.41;5013017;28;20203;-84
2021/12/01 06:20:27;;;;;;;0.00;0.00;;;5.80;99.90;;;5.61;100.00;99262.91;5012380;28;20245;-82
2021/12/01 06:22:55;;;;;;;0.00;0.00;;;5.80;99.90;;;5.51;100.00;99255.81;5029995;28;20239;-82
2021/12/01 06:25:24;;;;;;;0.00;0.00;;;5.70;99.90;;;5.47;100.00;99248.75;5026520;28;20694;-83
2021/12/01 06:27:55;;;;;;;0.00;0.00;;;5.70;99.90;;;5.44;100.00;99253.97;4981999;28;20215;-83
2021/12/01 06:30:26;;;;;;;0.10;0.10;;;5.60;99.90;;;5.37;100.00;99257.41;5025966;28;20228;-83
2021/12/01 06:32:55;;;;;;;0.10;0.10;;;5.60;99.90;;;5.35;100.00;99257.38;5011376;28;20208;-83
2021/12/01 06:35:37;;;;;;;0.57;0.57;;;5.50;99.90;;;5.33;100.00;99256.50;5029602;28;20210;-82
2021/12/01 06:38:05;;;;;;;0.10;0.10;;;5.50;99.90;;;5.34;100.00;99266.09;5030827;28;20219;-82
2021/12/01 06:40:33;;;;;;;0.00;0.00;;;5.50;99.90;;;5.35;100.00;99270.50;5024121;28;20228;-83
2021/12/01 06:43:02;;;;;;;0.00;0.00;;;5.50;99.90;;;5.33;100.00;99269.59;5011591;28;20706;-83
2021/12/01 06:45:30;;;;;;;0.00;0.00;;;5.50;99.90;;;5.31;100.00;99258.22;4995917;28;20212;-83
2021/12/01 06:47:59;;;;;;;0.00;0.00;;;5.50;99.90;;;5.32;100.00;99262.59;5006360;28;20215;-82
2021/12/01 06:50:47;;;;;;;0.00;0.00;;;5.40;99.90;;;5.34;100.00;99259.97;4986243;28;20224;-85
2021/12/01 06:53:19;;;;;;;0.10;0.10;;;5.50;99.90;;;5.32;100.00;99265.22;5033736;28;20212;-83
2021/12/01 06:55:48;;;;;;;0.00;0.00;;;5.50;99.90;;;5.37;100.00;99257.41;5014344;28;20222;-82
2021/12/01 06:58:19;;;;;;;0.00;0.00;;;5.50;99.90;;;5.36;100.00;99247.78;5039278;28;20212;-84
2021/12/01 07:00:49;;;;;;;0.00;0.00;;;5.50;99.90;;;5.32;100.00;99239.00;5024029;28;20224;-83
2021/12/01 07:03:19;;;;;;;0.10;0.10;;;5.50;99.90;;;5.33;100.00;99248.63;5005224;28;20201;-84
2021/12/01 07:05:48;;;;;;;0.10;0.10;;;5.50;99.90;;;5.33;100.00;99242.50;5006990;28;20250;-83
2021/12/01 07:08:20;;;;;;;0.00;0.00;;;5.50;99.90;;;5.32;100.00;99243.38;5008928;28;20200;-83
2021/12/01 07:10:48;;;;;;;0.10;0.10;;;5.50;99.90;;;5.31;100.00;99241.59;5023506;28;20223;-83
2021/12/01 07:13:23;;;;;;;0.00;0.00;;;5.50;99.90;;;5.30;100.00;99239.84;5011657;28;20203;-84
2021/12/01 07:15:52;;;;;;;0.00;0.00;;;5.50;99.90;;;5.28;100.00;99234.59;5013510;28;20196;-84
2021/12/01 07:18:21;;;;;;;0.00;0.00;;;5.40;99.90;;;5.27;100.00;99234.56;5008530;28;20219;-83
2021/12/01 07:20:50;;;;;;;0.10;0.10;;;5.40;99.90;;;5.22;100.00;99226.66;5033574;28;20219;-83
2021/12/01 07:23:19;;;;;;;0.10;0.10;;;5.40;99.90;;;5.21;100.00;99226.63;5038272;28;20203;-84
2021/12/01 07:26:02;;;;;;;0.10;0.10;;;5.40;99.90;;;5.19;100.00;99221.34;5025657;28;20230;-83
2021/12/01 07:28:30;;;;;;;0.00;0.00;;;5.40;99.90;;;5.18;100.00;99216.97;5019949;28;20227;-83
2021/12/01 07:31:00;;;;;;;0.00;0.00;;;5.40;99.90;;;5.16;100.00;99216.06;4993509;28;20227;-84
2021/12/01 07:33:30;;;;;;;0.00;0.00;;;5.30;99.90;;;5.15;100.00;99204.72;4997797;28;20200;-83
2021/12/01 07:35:58;;;;;;;0.10;0.10;;;5.30;99.90;;;5.15;100.00;99202.09;5029079;28;20208;-83
2021/12/01 07:38:26;;;;;;;0.10;0.10;;;5.30;99.90;;;5.15;100.00;99204.72;5034453;28;20208;-83
2021/12/01 07:40:55;;;;;;;0.10;0.10;;;5.30;99.90;;;5.14;100.00;99197.72;5038065;28;20233;-83
2021/12/01 07:43:23;;;;;;;0.10;0.10;;;5.30;99.90;;;5.14;100.00;99200.34;5008253;28;20209;-84
2021/12/01 07:45:51;;;;;;;0.08;0.08;;;5.30;99.90;;;5.15;100.00;99186.38;5013662;28;20208;-83
2021/12/01 07:48:19;;;;;;;0.00;0.00;;;5.30;99.90;;;5.15;100.00;99173.25;5013460;28;20211;-83
2021/12/01 07:50:49;;;;;;;0.10;0.10;;;5.30;99.90;;;5.17;100.00;99177.66;5046982;28;20608;-84
2021/12/01 07:53:22;;;;;;;0.00;0.00;;;5.30;99.90;;;5.18;100.00;99168.91;5030222;28;20207;-82
2021/12/01 07:55:50;;;;;;;0.10;0.10;;;5.30;99.90;;;5.18;100.00;99172.41;5014091;28;20211;-83
2021/12/01 07:58:19;;;;;;;0.10;0.10;;;5.30;99.90;;;5.20;100.00;99178.59;4997250;28;20196;-83
2021/12/01 08:00:49;;;;;;;0.10;0.10;;;5.30;99.90;;;5.23;100.00;99172.50;4996733;28;20224;-83
2021/12/01 08:03:18;;;;;;;0.00;0.00;;;5.40;99.90;;;5.24;100.00;99162.03;4996948;28;20678;-83
2021/12/01 08:05:49;;;;;;;0.00;0.00;;;5.40;99.90;;;5.27;100.00;99159.44;5013078;28;20196;-82
2021/12/01 08:08:19;;;;;;;0.10;0.10;;;5.40;99.90;;;5.27;100.00;99151.56;5015212;28;20200;-82
2021/12/01 08:10:49;;;;;;;0.10;0.10;;;5.40;99.90;;;5.29;100.00;99152.47;4998103;28;20227;-83
2021/12/01 08:13:19;;;;;;;0.10;0.10;;;5.40;99.90;;;5.30;100.00;99154.22;5023360;28;20208;-82
2021/12/01 08:15:50;;;;;;;0.10;0.10;;;5.40;99.90;;;5.34;100.00;99152.50;4998485;28;20200;-81
2021/12/01 08:18:19;;;;;;;0.00;0.00;;;5.50;99.90;;;5.34;100.00;99147.28;5005580;28;20212;-82
2021/12/01 08:20:49;;;;;;;0.00;0.00;;;5.50;99.90;;;5.37;100.00;99136.81;4998119;28;20227;-84
2021/12/01 08:23:20;;;;;;;0.00;0.00;;;5.50;99.90;;;5.38;100.00;99136.81;4995842;28;20242;-84
2021/12/01 08:25:53;;;;;;;0.10;0.10;;;5.50;99.90;;;5.39;100.00;99129.84;5024225;28;20211;-82
2021/12/01 08:28:21;;;;;;;0.10;0.10;;;5.60;99.90;;;5.40;100.00;99118.50;4998097;28;20223;-83
2021/12/01 08:30:50;;;;;;;0.00;0.00;;;5.60;99.90;;;5.41;100.00;99120.25;5026656;28;20224;-84
2021/12/01 08:33:23;;;;;;;0.10;0.10;;;5.60;99.90;;;5.43;100.00;99118.50;5021693;28;20604;-83
2021/12/01 08:35:53;;;;;;;0.00;0.00;;;5.60;99.90;;;5.44;100.00;99123.78;5022319;28;20204;-83
2021/12/01 08:38:21;;;;;;;0.00;0.00;;;5.60;99.90;;;5.49;100.00;99112.44;5033806;28;20220;-83
2021/12/01 08:40:51;;;;;;;0.10;0.10;;;5.60;99.90;;;5.51;100.00;99110.72;5013805;28;20235;-84
2021/12/01 08:43:20;;;;;;;0.00;0.00;;;5.60;99.90;;;5.53;100.00;99101.13;5023638;28;20211;-83
2021/12/01 08:45:55;;;;;;;0.00;0.00;;;5.70;99.90;;;5.57;100.00;99092.41;5020663;28;20233;-84
2021/12/01 08:48:24;;;;;;;0.10;0.10;;;5.70;99.90;;;5.60;100.00;99095.94;5014432;28;20238;-83
2021/12/01 08:50:53;;;;;;;0.00;0.00;;;5.70;99.90;;;5.63;100.00;99093.31;5019351;28;20220;-84
2021/12/01 08:53:22;;;;;;;0.10;0.10;;;5.70;99.90;;;5.66;100.00;99089.84;5014504;28;20204;-83
2021/12/01 08:55:50;;;;;;;0.10;0.10;;;5.80;99.90;;;5.69;100.00;99079.38;5021680;28;20215;-84
2021/12/01 08:58:24;;;;;;;0.00;0.00;;;5.80;99.90;;;5.75;100.00;99071.56;5013569;28;20663;-83
2021/12/01 09:00:55;;;;;;;0.00;0.00;;;5.90;99.90;;;5.77;100.00;99065.44;5052552;28;20219;-84
2021/12/01 09:03:25;;;;;;;0.05;0.05;;;5.90;99.90;;;5.82;100.00;99054.97;5052988;28;20204;-84
2021/12/01 09:05:54;;;;;;;0.00;0.00;;;5.90;99.90;;;5.85;100.00;99054.13;5020306;28;20205;-84
2021/12/01 09:08:24;;;;;;;0.00;0.00;;;6.00;99.90;;;5.86;100.00;99041.00;4991644;28;20224;-84
2021/12/01 09:10:58;;;;;;;0.00;0.00;;;6.00;99.90;;;5.88;100.00;99028.78;5014613;28;20223;-83
2021/12/01 09:13:29;;;;;;;0.10;0.10;;;6.00;99.90;;;5.92;100.00;99017.47;5017101;28;20205;-83
2021/12/01 09:15:58;;;;;;;0.10;0.10;;;6.00;99.90;;;5.96;100.00;99019.25;4992803;28;20211;-84
2021/12/01 09:18:29;;;;;;;0.00;0.00;;;6.00;99.90;;;5.98;100.00;99016.63;5030466;28;20224;-82
2021/12/01 09:20:59;;;;;;;0.08;0.08;;;6.00;99.90;;;6.00;100.00;99007.88;5021020;28;20231;-84
2021/12/01 09:23:28;;;;;;;0.00;0.00;;;6.10;99.90;;;6.06;100.00;99018.41;5034593;28;20235;-83
2021/12/01 09:25:57;;;;;;;0.00;0.00;;;6.20;99.90;;;6.12;100.00;98998.31;5042406;28;20230;-83
2021/12/01 09:28:26;;;;;;;0.10;0.10;;;6.20;99.90;;;6.17;100.00;99007.06;5004508;28;20228;-83
2021/12/01 09:30:57;;;;;;;0.00;0.00;;;6.30;99.90;;;6.20;100.00;99025.47;5029509;28;20265;-84
2021/12/01 09:33:29;;;;;;;0.00;0.00;;;6.30;99.90;;;6.24;100.00;98993.97;5018450;28;20207;-84
2021/12/01 09:35:57;;;;;;;0.00;0.00;;;6.30;99.90;;;6.29;100.00;99002.75;4999857;28;20188;-83
2021/12/01 09:38:27;;;;;;;0.08;0.08;;;6.40;99.90;;;6.31;100.00;98987.00;5020317;28;20203;-83
2021/12/01 09:40:59;;;;;;;0.00;0.00;;;6.40;99.90;;;6.37;100.00;98987.91;4995264;28;20235;-84
2021/12/01 09:43:31;;;;;;;0.10;0.10;;;6.50;99.90;;;6.43;100.00;98987.03;5017967;28;20379;-84
2021/12/01 09:46:08;;;;;;;0.00;0.00;;;6.50;99.90;;;6.49;100.00;98987.03;4996411;28;20214;-84
2021/12/01 09:48:39;;;;;;;0.00;0.00;;;6.60;99.90;;;6.56;100.00;98982.72;4998982;28;20227;-83
2021/12/01 09:51:17;;;;;;;0.00;0.00;;;6.60;99.90;;;6.61;100.00;98983.59;5029425;28;20219;-84
2021/12/01 09:53:46;;;;;;;0.10;0.10;;;6.70;99.90;;;6.63;100.00;98972.22;5020066;28;20550;-83
2021/12/01 09:56:16;;;;;;;0.00;0.00;;;6.70;99.90;;;6.77;100.00;98966.97;5000601;28;20200;-83
2021/12/01 09:58:44;;;;;;;0.10;0.10;;;6.80;99.90;;;6.84;100.00;98963.47;4999034;28;20318;-84
2021/12/01 10:01:17;;;;;;;0.10;0.10;;;6.90;99.90;;;6.85;100.00;98954.72;5017474;28;20235;-84
2021/12/01 10:03:52;;;;;;;0.00;0.00;;;7.00;99.90;;;6.85;100.00;98940.72;5015590;28;20216;-84
2021/12/01 10:06:24;;;;;;;0.00;0.00;;;7.00;99.90;;;6.87;100.00;98933.69;5030005;28;20200;-84
2021/12/01 10:08:57;;;;;;;0.00;0.00;;;7.00;99.90;;;6.91;100.00;98933.69;5023014;28;20222;-84
2021/12/01 10:11:33;;;;;;;0.10;0.10;;;7.00;99.90;;;6.90;100.00;98925.81;5004967;28;20220;-84
2021/12/01 10:14:19;;;;;;;0.00;0.00;;;7.00;99.90;;;6.93;100.00;98921.44;5011056;28;20219;-84
2021/12/01 10:16:55;;;;;;;0.10;0.10;;;7.10;99.90;;;6.95;100.00;98909.16;5044764;28;20214;-84
2021/12/01 10:19:25;;;;;;;0.00;0.00;;;7.10;99.90;;;6.96;100.00;98904.78;5018152;28;20204;-84
2021/12/01 10:21:54;;;;;;;0.00;0.00;;;7.00;99.90;;;6.98;100.00;98897.78;5019356;28;20215;-85
2021/12/01 10:24:32;;;;;;;0.00;0.00;;;7.10;99.90;;;7.00;100.00;98894.28;5040380;28;20211;-84
2021/12/01 10:27:06;;;;;;;0.10;0.10;;;7.10;99.90;;;6.98;100.00;98879.38;5014467;28;20207;-84
2021/12/01 10:29:43;;;;;;;0.00;0.00;;;7.10;99.90;;;6.96;100.00;98882.00;5007655;28;20203;-82
2021/12/01 10:32:12;;;;;;;0.10;0.10;;;7.10;99.90;;;6.95;100.00;98868.88;5009193;28;20207;-85
2021/12/01 10:34:50;;;;;;;0.00;0.00;;;7.10;99.90;;;6.95;100.00;98869.75;5049766;28;20577;-84
2021/12/01 10:37:25;;;;;;;0.10;0.10;;;7.10;99.90;;;6.95;100.00;98861.88;5013587;28;20208;-85
2021/12/01 10:40:12;;;;;;;0.00;0.00;;;7.10;99.90;;;6.96;100.00;98853.09;5008952;28;20275;-85
2021/12/01 10:42:59;;;;;;;0.00;0.00;;;7.10;99.90;;;6.93;100.00;98845.22;5001838;28;20674;-85
2021/12/01 10:45:32;;;;;;;0.00;0.00;;;7.10;99.90;;;6.99;100.00;98847.84;5022336;28;20218;-84
2021/12/01 10:48:01;;;;;;;0.00;0.00;;;7.10;99.90;;;7.03;100.00;98840.81;4998253;28;20484;-85
2021/12/01 10:50:33;;;;;;;0.00;0.00;;;7.10;99.90;;;7.11;100.00;98846.06;5052941;28;20239;-84
2021/12/01 10:53:14;;;;;;;0.10;0.10;;;7.20;99.90;;;7.08;100.00;98839.06;5006370;28;20201;-85
2021/12/01 10:56:01;;;;;;;0.00;0.00;;;7.20;99.90;;;7.12;100.00;98834.69;5016957;28;20282;-85
2021/12/01 10:58:41;;;;;;;0.00;0.00;;;7.20;99.90;;;7.12;100.00;98821.53;5012279;28;20233;-84